Time;durP1;ratioP1;P1;durP2;ratioP2;P2;SDS_P1;SDS_P2;PMS_P1;PMS_P2;Temp;Humidity;BMP_temperature;BMP_pressure;BME280_temperature;BME280_humidity;BME280_pressure;Samples;Min_cycle;Max_cycle;Signal;HPM_P1;HPM_P2
2023/03/26 00:01:22;;;;;;;7.38;1.42;;;10.60;99.90;;;;;;5047241;28;20051;-77
2023/03/26 00:03:53;;;;;;;7.30;2.08;;;10.70;99.90;;;;;;5045093;28;20417;-76
2023/03/26 00:06:26;;;;;;;5.30;1.23;;;10.70;99.90;;;;;;5043816;28;20045;-77
2023/03/26 00:08:53;;;;;;;9.30;2.00;;;10.70;99.90;;;;;;5044544;28;20060;-77
2023/03/26 00:11:22;;;;;;;8.80;2.28;;;10.70;99.90;;;;;;5045982;28;20076;-76
2023/03/26 00:13:49;;;;;;;8.18;1.60;;;10.70;99.90;;;;;;5043780;28;20065;-76
2023/03/26 00:16:18;;;;;;;6.75;1.48;;;10.70;99.90;;;;;;5043124;28;20049;-76
2023/03/26 00:18:46;;;;;;;4.85;1.45;;;10.70;99.90;;;;;;5043506;28;20048;-76
2023/03/26 00:21:15;;;;;;;6.47;1.40;;;10.70;99.90;;;;;;5045791;28;20045;-77
2023/03/26 00:23:42;;;;;;;6.38;1.92;;;10.70;99.90;;;;;;5042626;28;20053;-77
2023/03/26 00:26:09;;;;;;;5.13;1.38;;;10.70;99.90;;;;;;5043279;28;20140;-76
2023/03/26 00:28:39;;;;;;;7.72;1.92;;;10.70;99.90;;;;;;5033955;28;20053;-77
2023/03/26 00:31:10;;;;;;;5.80;1.90;;;10.70;99.90;;;;;;5033871;28;20050;-77
2023/03/26 00:33:39;;;;;;;8.98;1.35;;;10.70;99.90;;;;;;5034335;28;20076;-76
2023/03/26 00:36:10;;;;;;;10.20;1.80;;;10.70;99.90;;;;;;5034311;28;20046;-77
2023/03/26 00:38:38;;;;;;;7.82;1.20;;;10.70;99.90;;;;;;5041500;28;20755;-76
2023/03/26 00:41:21;;;;;;;5.72;1.85;;;10.70;99.90;;;;;;5045046;28;20041;-77
2023/03/26 00:43:51;;;;;;;8.25;1.20;;;10.70;99.90;;;;;;5044967;28;20565;-76
2023/03/26 00:46:18;;;;;;;8.05;1.52;;;10.70;99.90;;;;;;5043558;28;20516;-76
2023/03/26 00:48:45;;;;;;;10.35;2.22;;;10.70;99.90;;;;;;5042782;28;20049;-76
2023/03/26 00:51:17;;;;;;;11.07;1.85;;;10.70;99.90;;;;;;5043895;28;20055;-76
2023/03/26 00:53:46;;;;;;;12.20;1.50;;;10.70;99.90;;;;;;5044523;28;20514;-76
2023/03/26 00:56:13;;;;;;;11.35;2.38;;;10.70;99.90;;;;;;5057971;28;20052;-76
2023/03/26 00:58:40;;;;;;;8.95;1.58;;;10.70;99.90;;;;;;5043197;28;20045;-77
2023/03/26 01:01:12;;;;;;;6.43;1.38;;;10.70;99.90;;;;;;5044017;28;20140;-76
2023/03/26 01:03:41;;;;;;;9.65;1.75;;;10.70;99.90;;;;;;5044173;28;20128;-77
2023/03/26 01:06:27;;;;;;;8.02;1.45;;;10.70;99.90;;;;;;5044259;28;20068;-76
2023/03/26 01:08:58;;;;;;;6.82;1.48;;;10.70;99.90;;;;;;5042260;28;20053;-76
2023/03/26 01:11:29;;;;;;;8.35;1.45;;;10.70;99.90;;;;;;5042167;28;20054;-76
2023/03/26 01:14:02;;;;;;;9.52;1.50;;;10.70;99.90;;;;;;5043930;28;20045;-76
2023/03/26 01:16:40;;;;;;;8.15;1.98;;;10.70;99.90;;;;;;5044477;28;20113;-76
2023/03/26 01:19:15;;;;;;;6.72;1.40;;;10.70;99.90;;;;;;5044247;28;20106;-76
2023/03/26 01:21:42;;;;;;;10.07;1.67;;;10.70;99.90;;;;;;5042271;28;20042;-76
2023/03/26 01:24:09;;;;;;;5.22;1.30;;;10.70;99.90;;;;;;5041913;28;20072;-76
2023/03/26 01:26:39;;;;;;;8.23;1.83;;;10.70;99.90;;;;;;5043594;28;20124;-77
2023/03/26 01:29:17;;;;;;;11.55;2.55;;;10.70;99.90;;;;;;5043973;28;20045;-76
2023/03/26 01:32:08;;;;;;;6.45;1.58;;;10.70;99.90;;;;;;5043596;28;20059;-77
2023/03/26 01:34:42;;;;;;;4.38;1.45;;;10.70;99.90;;;;;;5044201;28;20056;-77
2023/03/26 01:37:32;;;;;;;7.78;1.67;;;10.80;99.90;;;;;;5043625;28;20045;-77
2023/03/26 01:40:08;;;;;;;10.02;1.73;;;10.80;99.90;;;;;;5043759;28;20091;-76
2023/03/26 01:42:44;;;;;;;6.88;1.63;;;10.80;99.90;;;;;;5042507;28;20057;-77
2023/03/26 01:45:20;;;;;;;7.43;1.40;;;10.80;99.90;;;;;;5042615;28;20053;-76
2023/03/26 01:47:47;;;;;;;10.25;1.70;;;10.80;99.90;;;;;;5032691;28;20053;-76
2023/03/26 01:50:14;;;;;;;11.32;1.73;;;10.80;99.90;;;;;;5032267;28;20045;-76
2023/03/26 01:52:41;;;;;;;6.18;1.75;;;10.80;99.90;;;;;;5032426;28;20061;-76
2023/03/26 01:55:10;;;;;;;10.75;1.83;;;10.80;99.90;;;;;;5032482;28;20057;-76
2023/03/26 01:57:57;;;;;;;7.38;1.58;;;10.80;99.90;;;;;;5038727;28;20051;-76
2023/03/26 02:00:45;;;;;;;8.30;1.42;;;10.80;99.90;;;;;;5036977;28;20135;-75
2023/03/26 02:03:33;;;;;;;7.28;1.70;;;10.80;99.90;;;;;;5041637;28;20052;-76
2023/03/26 02:06:00;;;;;;;6.45;1.75;;;10.80;99.90;;;;;;5042343;28;20050;-76
2023/03/26 02:08:41;;;;;;;8.35;1.30;;;10.80;99.90;;;;;;5040960;28;20417;-76
2023/03/26 02:11:13;;;;;;;9.93;1.80;;;10.80;99.90;;;;;;5041038;28;20050;-76
2023/03/26 02:13:42;;;;;;;9.55;2.10;;;10.80;99.90;;;;;;5041797;28;20394;-76
2023/03/26 02:16:15;;;;;;;8.57;1.77;;;10.80;99.90;;;;;;5040868;28;20041;-76
2023/03/26 02:18:44;;;;;;;13.35;2.38;;;10.80;99.90;;;;;;5040715;28;20068;-76
2023/03/26 02:21:24;;;;;;;10.18;2.15;;;10.80;99.90;;;;;;5041958;28;20056;-76
2023/03/26 02:24:01;;;;;;;6.65;1.60;;;10.80;99.90;;;;;;5042322;28;20122;-76
2023/03/26 02:26:34;;;;;;;7.10;1.40;;;10.80;99.90;;;;;;5042814;28;20586;-76
2023/03/26 02:29:01;;;;;;;10.20;1.83;;;10.80;99.90;;;;;;5040954;28;20056;-76
2023/03/26 02:31:28;;;;;;;11.02;1.58;;;10.80;99.90;;;;;;5039650;28;20045;-76
2023/03/26 02:33:56;;;;;;;6.13;1.73;;;10.80;99.90;;;;;;5042846;28;20450;-76
2023/03/26 02:36:26;;;;;;;11.73;1.88;;;10.90;99.90;;;;;;5042007;28;20114;-76
2023/03/26 02:38:54;;;;;;;8.85;1.80;;;10.80;99.90;;;;;;5040441;28;20133;-76
2023/03/26 02:41:21;;;;;;;6.70;1.52;;;10.90;99.90;;;;;;5041348;28;20532;-76
2023/03/26 02:43:49;;;;;;;8.07;1.58;;;10.90;99.90;;;;;;5042933;28;20049;-76
2023/03/26 02:46:15;;;;;;;9.10;1.67;;;10.90;99.90;;;;;;5041277;28;20049;-76
2023/03/26 02:48:42;;;;;;;8.80;1.60;;;10.90;99.90;;;;;;5040473;28;20088;-76
2023/03/26 02:51:09;;;;;;;13.35;2.00;;;10.90;99.90;;;;;;5044221;28;20049;-76
2023/03/26 02:53:38;;;;;;;8.23;1.80;;;10.90;99.90;;;;;;5041066;28;20049;-76
2023/03/26 02:56:05;;;;;;;8.13;2.30;;;10.90;99.90;;;;;;5041747;28;20041;-76
2023/03/26 02:58:32;;;;;;;9.57;1.70;;;10.90;99.90;;;;;;5041600;28;20052;-76
2023/03/26 03:01:01;;;;;;;10.30;2.45;;;10.90;99.90;;;;;;5040149;28;20088;-77
2023/03/26 03:03:29;;;;;;;10.95;1.58;;;10.90;99.90;;;;;;5041945;28;20053;-77
2023/03/26 03:05:56;;;;;;;9.15;1.80;;;10.90;99.90;;;;;;5042894;28;20443;-76
2023/03/26 03:08:26;;;;;;;6.68;1.95;;;10.90;99.90;;;;;;5039610;28;20049;-76
2023/03/26 03:11:20;;;;;;;11.00;1.67;;;10.90;99.90;;;;;;5040136;28;20133;-77
2023/03/26 03:13:47;;;;;;;11.00;1.92;;;10.90;99.90;;;;;;5040649;28;20045;-77
2023/03/26 03:16:14;;;;;;;8.40;1.63;;;10.90;99.90;;;;;;5040801;28;20053;-76
2023/03/26 03:18:41;;;;;;;10.35;1.58;;;10.90;99.90;;;;;;5042420;28;20051;-76
2023/03/26 03:21:08;;;;;;;4.63;1.58;;;10.90;99.90;;;;;;5041168;28;20049;-76
2023/03/26 03:23:35;;;;;;;8.15;1.98;;;10.90;99.90;;;;;;5040331;28;20053;-75
2023/03/26 03:26:01;;;;;;;10.88;2.05;;;10.90;99.90;;;;;;5045943;28;20045;-75
2023/03/26 03:28:29;;;;;;;9.68;1.65;;;10.90;99.90;;;;;;5046505;28;20053;-76
2023/03/26 03:30:56;;;;;;;7.65;1.52;;;10.90;99.90;;;;;;5045027;28;20049;-76
2023/03/26 03:33:23;;;;;;;9.98;1.20;;;10.90;99.90;;;;;;5045879;28;20508;-76
2023/03/26 03:35:50;;;;;;;5.22;2.08;;;10.90;99.90;;;;;;5044173;28;20041;-76
2023/03/26 03:38:17;;;;;;;5.38;1.20;;;10.90;99.90;;;;;;5045442;28;20451;-76
2023/03/26 03:40:44;;;;;;;8.82;2.17;;;10.90;99.90;;;;;;5045967;28;20550;-76
2023/03/26 03:43:10;;;;;;;4.22;1.15;;;10.90;99.90;;;;;;5044148;28;20128;-76
2023/03/26 03:45:37;;;;;;;4.32;1.45;;;10.90;99.90;;;;;;5044864;28;20137;-76
2023/03/26 03:48:04;;;;;;;6.82;1.70;;;10.90;99.90;;;;;;5045957;28;20092;-76
2023/03/26 03:50:31;;;;;;;4.85;1.08;;;11.00;99.90;;;;;;5044688;28;20050;-76
2023/03/26 03:53:01;;;;;;;4.07;1.20;;;10.90;99.90;;;;;;5043540;28;20045;-77
2023/03/26 03:55:28;;;;;;;4.97;1.35;;;11.00;99.90;;;;;;5045363;28;20398;-76
2023/03/26 03:57:57;;;;;;;7.82;1.10;;;11.00;99.90;;;;;;5045744;28;20055;-75
2023/03/26 04:00:23;;;;;;;6.10;1.77;;;11.00;99.90;;;;;;5043932;28;20045;-76
2023/03/26 04:02:53;;;;;;;4.45;1.67;;;11.00;99.90;;;;;;5044036;28;20061;-76
2023/03/26 04:05:20;;;;;;;5.50;1.20;;;11.10;99.90;;;;;;5043558;28;20167;-76
2023/03/26 04:07:47;;;;;;;5.10;1.00;;;11.10;99.90;;;;;;5044153;28;20428;-76
2023/03/26 04:10:14;;;;;;;4.80;1.20;;;11.10;99.90;;;;;;5045408;28;20060;-76
2023/03/26 04:12:41;;;;;;;4.97;0.98;;;11.10;99.90;;;;;;5043026;28;20107;-76
2023/03/26 04:15:08;;;;;;;3.65;0.88;;;11.10;99.90;;;;;;5043342;28;20046;-76
2023/03/26 04:17:41;;;;;;;4.85;1.30;;;11.10;99.90;;;;;;5044173;28;20048;-76
2023/03/26 04:20:13;;;;;;;1.90;0.70;;;11.10;99.90;;;;;;5045424;28;20053;-76
2023/03/26 04:22:41;;;;;;;3.47;1.10;;;11.10;99.90;;;;;;5044558;28;20101;-77
2023/03/26 04:25:09;;;;;;;3.38;1.02;;;11.10;99.90;;;;;;5043252;28;20052;-76
2023/03/26 04:27:36;;;;;;;5.63;1.15;;;11.10;99.90;;;;;;5044803;28;20045;-76
2023/03/26 04:30:06;;;;;;;1.52;0.80;;;11.10;99.90;;;;;;5044861;28;20040;-76
2023/03/26 04:32:33;;;;;;;4.45;1.10;;;11.10;99.90;;;;;;5043342;28;20056;-76
2023/03/26 04:35:02;;;;;;;5.80;1.25;;;11.10;99.90;;;;;;5042423;28;20080;-76
2023/03/26 04:37:33;;;;;;;3.53;0.90;;;11.10;99.90;;;;;;5042915;28;20054;-77
2023/03/26 04:40:07;;;;;;;6.43;1.20;;;11.10;99.90;;;;;;5042648;28;20515;-76
2023/03/26 04:42:40;;;;;;;4.47;1.40;;;11.10;99.90;;;;;;5044426;28;20523;-76
2023/03/26 04:45:08;;;;;;;6.13;1.15;;;11.10;99.90;;;;;;5047352;28;20128;-76
2023/03/26 04:47:35;;;;;;;2.67;0.80;;;11.00;99.90;;;;;;5045015;28;20589;-76
2023/03/26 04:50:04;;;;;;;3.15;1.27;;;11.00;99.90;;;;;;5042474;28;20053;-77
2023/03/26 04:52:30;;;;;;;2.08;0.70;;;11.10;99.90;;;;;;5043890;28;20511;-76
2023/03/26 04:54:57;;;;;;;3.45;0.93;;;11.00;99.90;;;;;;5044818;28;20041;-77
2023/03/26 04:57:27;;;;;;;2.78;0.90;;;11.00;99.90;;;;;;5042621;28;20045;-76
2023/03/26 04:59:53;;;;;;;3.85;1.00;;;11.00;99.90;;;;;;5042335;28;20073;-76
2023/03/26 05:02:20;;;;;;;5.00;1.17;;;11.00;99.90;;;;;;5046656;28;20045;-76
2023/03/26 05:04:48;;;;;;;5.45;1.27;;;11.00;99.90;;;;;;5044985;28;20060;-76
2023/03/26 05:07:22;;;;;;;3.58;1.08;;;11.00;99.90;;;;;;5042272;28;20096;-77
2023/03/26 05:09:49;;;;;;;5.00;1.10;;;11.10;99.90;;;;;;5042768;28;20053;-77
2023/03/26 05:12:16;;;;;;;3.22;0.88;;;11.00;99.90;;;;;;5044674;28;20048;-77
2023/03/26 05:14:42;;;;;;;3.20;1.17;;;11.10;99.90;;;;;;5043173;28;20489;-76
2023/03/26 05:17:13;;;;;;;3.60;1.10;;;11.10;99.90;;;;;;5042156;28;20060;-76
2023/03/26 05:19:40;;;;;;;4.22;0.88;;;11.10;99.90;;;;;;5043323;28;20087;-76
2023/03/26 05:22:07;;;;;;;4.32;1.27;;;11.10;99.90;;;;;;5044395;28;20057;-77
2023/03/26 05:24:34;;;;;;;3.75;1.33;;;11.00;99.90;;;;;;5042145;28;20571;-76
2023/03/26 05:27:00;;;;;;;3.95;1.20;;;11.00;99.90;;;;;;5042308;28;20050;-77
2023/03/26 05:29:27;;;;;;;1.63;0.80;;;11.00;99.90;;;;;;5044262;28;20071;-77
2023/03/26 05:31:54;;;;;;;4.72;1.08;;;11.10;99.90;;;;;;5041029;28;20962;-77
2023/03/26 05:34:25;;;;;;;4.50;1.60;;;11.10;99.90;;;;;;5044369;28;20049;-77
2023/03/26 05:36:51;;;;;;;3.65;1.17;;;11.10;99.90;;;;;;5042721;28;20479;-77
2023/03/26 05:39:21;;;;;;;4.05;1.48;;;11.00;99.90;;;;;;5046957;28;20562;-76
2023/03/26 05:41:48;;;;;;;3.00;1.20;;;11.10;99.90;;;;;;5042208;28;20052;-76
2023/03/26 05:44:15;;;;;;;5.20;1.33;;;11.00;99.90;;;;;;5043703;28;20053;-77
2023/03/26 05:46:42;;;;;;;5.10;1.05;;;11.00;99.90;;;;;;5046264;28;20041;-74
2023/03/26 05:49:08;;;;;;;3.72;1.25;;;10.90;99.90;;;;;;5044809;28;20049;-76
2023/03/26 05:51:35;;;;;;;2.60;1.00;;;10.90;99.90;;;;;;5035504;28;20049;-76
2023/03/26 05:54:02;;;;;;;4.95;1.10;;;11.00;99.90;;;;;;5044537;28;20044;-77
2023/03/26 05:56:28;;;;;;;5.00;0.90;;;11.00;99.90;;;;;;5042486;28;20056;-76
2023/03/26 05:58:56;;;;;;;2.33;0.98;;;11.00;99.90;;;;;;5041505;28;20398;-76
2023/03/26 06:01:24;;;;;;;4.43;1.20;;;11.00;99.90;;;;;;5042440;28;20041;-77
2023/03/26 06:03:51;;;;;;;4.00;0.90;;;11.00;99.90;;;;;;5046964;28;20140;-77
2023/03/26 06:06:19;;;;;;;3.60;1.08;;;11.00;99.90;;;;;;5039600;28;20064;-77
2023/03/26 06:08:51;;;;;;;3.13;0.90;;;11.00;99.90;;;;;;5044653;28;20493;-77
2023/03/26 06:11:29;;;;;;;7.03;1.48;;;11.00;99.90;;;;;;5046602;28;20110;-75
2023/03/26 06:13:56;;;;;;;5.85;1.00;;;11.00;99.90;;;;;;5041284;28;20127;-76
2023/03/26 06:16:23;;;;;;;4.13;0.95;;;11.00;99.90;;;;;;5044175;28;20048;-77
2023/03/26 06:18:54;;;;;;;3.63;1.25;;;11.00;99.90;;;;;;5048373;28;20068;-76
2023/03/26 06:21:26;;;;;;;3.00;1.20;;;11.00;99.90;;;;;;5045327;28;20114;-76
2023/03/26 06:23:54;;;;;;;;;;;11.00;99.90;;;;;;5037793;28;20428;-76
2023/03/26 06:26:21;;;;;;;3.85;0.90;;;11.00;99.90;;;;;;5038791;28;20384;-76
2023/03/26 06:28:47;;;;;;;2.15;0.77;;;11.00;99.90;;;;;;5040732;28;20049;-76
2023/03/26 06:31:16;;;;;;;4.10;1.40;;;11.00;99.90;;;;;;5042127;28;20041;-76
2023/03/26 06:33:42;;;;;;;2.95;0.90;;;11.10;99.90;;;;;;5042413;28;20045;-75
2023/03/26 06:36:09;;;;;;;5.65;1.40;;;11.10;99.90;;;;;;5040780;28;20048;-76
2023/03/26 06:38:36;;;;;;;4.55;1.02;;;11.10;99.90;;;;;;5034977;28;20049;-76
2023/03/26 06:41:04;;;;;;;2.83;0.68;;;11.10;99.90;;;;;;5045842;28;20504;-76
2023/03/26 06:43:35;;;;;;;4.47;0.85;;;11.20;99.90;;;;;;5043492;28;20045;-76
2023/03/26 06:46:02;;;;;;;3.30;0.88;;;11.10;99.90;;;;;;5038098;28;20477;-76
2023/03/26 06:48:29;;;;;;;2.97;0.90;;;11.20;99.90;;;;;;5046994;28;20049;-75
2023/03/26 06:50:56;;;;;;;3.08;0.77;;;11.10;99.90;;;;;;5046652;28;20175;-76
2023/03/26 06:53:22;;;;;;;2.10;0.88;;;11.20;99.90;;;;;;5041902;28;20965;-76
2023/03/26 06:55:49;;;;;;;2.47;0.93;;;11.20;99.90;;;;;;5042697;28;20423;-76
2023/03/26 06:58:16;;;;;;;4.70;1.15;;;11.20;99.90;;;;;;5040523;28;20432;-76
2023/03/26 07:00:43;;;;;;;3.95;0.80;;;11.20;99.90;;;;;;5044744;28;20046;-76
2023/03/26 07:03:10;;;;;;;2.40;1.00;;;11.20;99.90;;;;;;5031651;28;20157;-76
2023/03/26 07:05:39;;;;;;;2.78;0.80;;;11.30;99.90;;;;;;5043020;28;20045;-76
2023/03/26 07:08:06;;;;;;;2.70;0.73;;;11.30;99.90;;;;;;5045048;28;20056;-76
2023/03/26 07:10:33;;;;;;;1.08;0.60;;;11.40;99.90;;;;;;5043909;28;20085;-77
2023/03/26 07:12:59;;;;;;;1.60;0.80;;;11.40;99.90;;;;;;5044992;28;20041;-77
2023/03/26 07:15:27;;;;;;;3.33;1.08;;;11.40;99.90;;;;;;5045499;28;20067;-76
2023/03/26 07:17:54;;;;;;;2.70;1.00;;;11.50;99.90;;;;;;5042738;28;20045;-77
2023/03/26 07:20:21;;;;;;;2.42;0.77;;;11.50;99.90;;;;;;5040587;28;20421;-77
2023/03/26 07:22:49;;;;;;;2.17;1.17;;;11.50;99.90;;;;;;5041207;28;20045;-76
2023/03/26 07:25:17;;;;;;;1.73;0.82;;;11.50;99.90;;;;;;5042793;28;20048;-77
2023/03/26 07:27:52;;;;;;;2.25;1.08;;;11.60;99.90;;;;;;5041553;28;20060;-77
2023/03/26 07:30:36;;;;;;;4.80;0.80;;;11.60;99.90;;;;;;5031406;28;20045;-77
2023/03/26 07:33:17;;;;;;;2.70;0.80;;;11.60;99.90;;;;;;5031558;28;20402;-77
2023/03/26 07:36:08;;;;;;;2.90;0.85;;;11.60;99.90;;;;;;5031444;28;20049;-76
2023/03/26 07:39:29;;;;;;;2.05;0.90;;;11.70;99.90;;;;;;5029854;28;20050;-76
2023/03/26 07:42:26;;;;;;;2.72;0.90;;;11.70;99.90;;;;;;5009378;28;20056;-77
2023/03/26 07:45:26;;;;;;;3.83;0.90;;;11.70;99.90;;;;;;5041128;28;20060;-77
2023/03/26 07:47:54;;;;;;;;;;;11.70;99.90;;;;;;5043007;28;20076;-76
2023/03/26 07:50:23;;;;;;;4.47;0.95;;;11.70;99.90;;;;;;5040597;28;20392;-76
2023/03/26 07:52:50;;;;;;;4.20;0.90;;;11.70;99.90;;;;;;5039904;28;20112;-77
2023/03/26 07:55:18;;;;;;;5.38;0.95;;;11.80;99.90;;;;;;5040450;28;20045;-76
2023/03/26 07:57:59;;;;;;;6.88;1.42;;;11.70;99.90;;;;;;5041524;28;20424;-76
2023/03/26 08:00:35;;;;;;;5.25;1.75;;;11.70;99.90;;;;;;5041830;28;20048;-77
2023/03/26 08:03:19;;;;;;;2.28;1.08;;;11.70;99.90;;;;;;5040868;28;20080;-76
2023/03/26 08:05:52;;;;;;;7.35;1.92;;;11.70;99.90;;;;;;5041317;28;20102;-76
2023/03/26 08:08:30;;;;;;;2.17;1.08;;;11.60;99.90;;;;;;5041957;28;20052;-76
2023/03/26 08:11:44;;;;;;;5.60;1.40;;;11.50;99.90;;;;;;5043325;28;20049;-75
2023/03/26 08:14:23;;;;;;;5.60;1.55;;;11.40;99.90;;;;;;5045897;28;20052;-75
2023/03/26 08:16:57;;;;;;;4.93;1.90;;;11.40;99.90;;;;;;5045912;28;20186;-75
2023/03/26 08:19:30;;;;;;;5.25;1.40;;;11.50;99.90;;;;;;5044974;28;20045;-76
2023/03/26 08:22:12;;;;;;;4.82;1.40;;;11.50;99.90;;;;;;5043266;28;20049;-76
2023/03/26 08:24:52;;;;;;;3.35;1.70;;;11.60;99.90;;;;;;5043714;28;20053;-79
2023/03/26 08:27:33;;;;;;;2.75;1.38;;;11.60;99.90;;;;;;5043749;28;20060;-75
2023/03/26 08:30:18;;;;;;;5.72;1.70;;;11.50;99.90;;;;;;5042319;28;20523;-75
2023/03/26 08:32:53;;;;;;;5.38;1.83;;;11.50;99.90;;;;;;5042760;28;20053;-76
2023/03/26 08:35:21;;;;;;;4.55;1.77;;;11.50;99.90;;;;;;5042877;28;20045;-76
2023/03/26 08:37:48;;;;;;;6.97;1.90;;;11.60;99.90;;;;;;5044787;28;20044;-76
2023/03/26 08:40:35;;;;;;;6.95;1.45;;;11.60;99.90;;;;;;5044584;28;20052;-76
2023/03/26 08:43:32;;;;;;;5.10;1.30;;;11.70;99.90;;;;;;5045514;28;20045;-76
2023/03/26 08:46:41;;;;;;;5.72;1.55;;;11.70;99.90;;;;;;5043639;28;20057;-76
2023/03/26 08:49:27;;;;;;;6.57;1.75;;;11.80;99.90;;;;;;5041905;28;20144;-76
2023/03/26 08:52:23;;;;;;;5.70;1.45;;;12.00;99.90;;;;;;5043975;28;20124;-76
2023/03/26 08:55:07;;;;;;;4.40;2.25;;;12.10;99.90;;;;;;5044837;28;20094;-76
2023/03/26 08:57:52;;;;;;;5.72;1.38;;;12.30;99.90;;;;;;5045242;28;20040;-76
2023/03/26 09:00:34;;;;;;;6.70;1.70;;;12.40;99.90;;;;;;5044713;28;20041;-77
2023/03/26 09:03:21;;;;;;;8.73;1.95;;;12.40;99.90;;;;;;5044725;28;20518;-77
2023/03/26 09:05:54;;;;;;;7.45;1.55;;;12.50;99.90;;;;;;5042423;28;20152;-76
2023/03/26 09:08:58;;;;;;;4.30;1.42;;;12.50;99.90;;;;;;5042194;28;20055;-76
2023/03/26 09:12:00;;;;;;;5.60;1.35;;;12.50;99.90;;;;;;5042565;28;20045;-76
2023/03/26 09:14:58;;;;;;;6.72;1.60;;;12.60;99.90;;;;;;5042851;28;20060;-77
2023/03/26 09:18:02;;;;;;;4.00;1.27;;;12.70;99.90;;;;;;5044270;28;20051;-76
2023/03/26 09:21:01;;;;;;;3.92;1.20;;;12.70;99.90;;;;;;5043779;28;20110;-76
2023/03/26 09:23:39;;;;;;;4.40;1.35;;;12.80;99.90;;;;;;5035611;28;20423;-76
2023/03/26 09:26:34;;;;;;;2.42;0.90;;;12.70;99.90;;;;;;5044221;28;20053;-76
2023/03/26 09:29:38;;;;;;;3.80;1.10;;;12.80;99.90;;;;;;5042863;28;20429;-76
2023/03/26 09:34:56;;;;;;;1.95;0.95;;;12.80;99.90;;;;;;4960086;28;20051;-79
2023/03/26 09:37:48;;;;;;;2.20;1.15;;;12.80;99.90;;;;;;4963486;28;20055;-79
2023/03/26 09:40:54;;;;;;;5.32;1.60;;;12.70;99.90;;;;;;4978760;28;20043;-78
2023/03/26 09:43:39;;;;;;;5.00;1.58;;;12.70;99.90;;;;;;4960020;28;20126;-79
2023/03/26 09:46:21;;;;;;;3.67;1.20;;;12.70;99.90;;;;;;4981801;28;20159;-79
2023/03/26 09:48:48;;;;;;;4.32;1.10;;;12.70;99.90;;;;;;4979761;28;20125;-80
2023/03/26 09:51:29;;;;;;;4.65;1.08;;;12.60;99.90;;;;;;4985801;28;20058;-79
2023/03/26 09:54:05;;;;;;;4.85;1.23;;;12.70;99.90;;;;;;4983690;28;20046;-79
2023/03/26 09:57:02;;;;;;;3.80;1.10;;;12.70;99.90;;;;;;4982406;28;20042;-79
2023/03/26 09:59:45;;;;;;;3.83;1.10;;;12.70;99.90;;;;;;4978206;28;20051;-79
2023/03/26 10:02:23;;;;;;;2.58;0.82;;;12.60;99.90;;;;;;4982124;28;20042;-78
2023/03/26 10:05:40;;;;;;;6.20;1.33;;;12.60;99.90;;;;;;4985854;28;20058;-79
2023/03/26 10:08:22;;;;;;;3.25;1.10;;;12.60;99.90;;;;;;4984286;28;20058;-78
2023/03/26 10:10:55;;;;;;;4.80;1.38;;;12.60;99.90;;;;;;4977760;28;20050;-78
2023/03/26 10:13:50;;;;;;;3.58;1.10;;;12.70;99.90;;;;;;4977875;28;20425;-79
2023/03/26 10:16:38;;;;;;;4.55;1.08;;;12.70;99.90;;;;;;4988517;28;20038;-77
2023/03/26 10:19:27;;;;;;;1.58;0.90;;;12.80;99.90;;;;;;4987964;28;20047;-79
2023/03/26 10:22:33;;;;;;;5.85;1.40;;;12.70;99.90;;;;;;4982770;28;20062;-79
2023/03/26 10:25:27;;;;;;;2.47;0.90;;;12.70;99.90;;;;;;4982948;28;20058;-78
2023/03/26 10:28:13;;;;;;;4.30;1.40;;;12.90;99.90;;;;;;4983513;28;20050;-78
2023/03/26 10:30:59;;;;;;;3.13;0.90;;;12.90;99.90;;;;;;4987793;28;20587;-78
2023/03/26 10:33:51;;;;;;;4.90;1.10;;;12.90;99.90;;;;;;4979110;28;20050;-78
2023/03/26 10:36:45;;;;;;;5.95;0.95;;;13.00;99.90;;;;;;4979417;28;20047;-78
2023/03/26 10:39:59;;;;;;;2.38;0.98;;;13.00;99.90;;;;;;4981001;28;20077;-78
2023/03/26 10:42:48;;;;;;;3.80;1.17;;;13.00;99.90;;;;;;5001590;28;20093;-78
2023/03/26 10:45:47;;;;;;;2.47;1.40;;;13.00;99.90;;;;;;4976341;28;20058;-79
2023/03/26 10:48:42;;;;;;;1.48;0.60;;;13.00;99.90;;;;;;4980639;28;20120;-77
2023/03/26 10:51:17;;;;;;;4.28;0.90;;;12.90;99.90;;;;;;4980110;28;20085;-79
2023/03/26 10:54:05;;;;;;;4.20;1.00;;;12.90;99.90;;;;;;4990064;28;20052;-79
2023/03/26 10:56:43;;;;;;;4.80;0.82;;;12.90;99.90;;;;;;4984862;28;20050;-78
2023/03/26 10:59:15;;;;;;;2.97;0.85;;;12.90;99.90;;;;;;4982025;28;20277;-78
2023/03/26 11:02:23;;;;;;;4.88;0.85;;;12.90;99.90;;;;;;4997955;28;20426;-79
2023/03/26 11:05:21;;;;;;;5.82;1.10;;;13.00;99.90;;;;;;4987042;28;20054;-78
2023/03/26 11:07:54;;;;;;;3.58;1.05;;;13.10;99.90;;;;;;4984042;28;20054;-79
2023/03/26 11:10:39;;;;;;;6.07;0.90;;;13.20;99.90;;;;;;4978828;28;20061;-79
2023/03/26 11:13:38;;;;;;;3.97;1.20;;;13.30;99.90;;;;;;4983283;28;20545;-78
2023/03/26 11:16:15;;;;;;;5.13;1.45;;;13.30;99.90;;;;;;4987829;28;20050;-79
2023/03/26 11:18:53;;;;;;;5.25;0.95;;;13.10;99.90;;;;;;4991706;28;20100;-79
2023/03/26 11:21:43;;;;;;;3.15;0.52;;;12.80;99.90;;;;;;5004462;28;20114;-77
2023/03/26 11:24:31;;;;;;;1.40;0.63;;;12.40;99.90;;;;;;5002320;28;20108;-78
2023/03/26 11:27:04;;;;;;;20.80;1.08;;;12.00;99.90;;;;;;5002369;28;20045;-78
2023/03/26 11:30:01;;;;;;;1.05;0.50;;;11.70;99.90;;;;;;5006413;28;20085;-77
2023/03/26 11:32:50;;;;;;;1.33;0.40;;;11.60;99.90;;;;;;4982649;28;20047;-79
2023/03/26 11:35:40;;;;;;;3.20;0.52;;;11.40;99.90;;;;;;4988284;28;20050;-79
2023/03/26 11:38:36;;;;;;;2.10;0.70;;;11.30;99.90;;;;;;4986290;28;20518;-77
2023/03/26 11:41:10;;;;;;;1.60;0.60;;;11.20;99.90;;;;;;4982272;28;20054;-79
2023/03/26 11:43:37;;;;;;;5.50;0.60;;;11.10;99.90;;;;;;4985462;28;20049;-79
2023/03/26 11:46:09;;;;;;;1.70;0.50;;;11.00;99.90;;;;;;4991115;28;20086;-78
2023/03/26 11:48:42;;;;;;;2.13;0.70;;;11.00;99.90;;;;;;4991041;28;20053;-79
2023/03/26 11:51:17;;;;;;;2.13;0.57;;;10.90;99.90;;;;;;4997033;28;20065;-79
2023/03/26 11:53:47;;;;;;;2.75;0.80;;;11.00;99.90;;;;;;4987218;28;20054;-79
2023/03/26 11:56:17;;;;;;;3.15;0.80;;;11.00;99.90;;;;;;4985158;28;20046;-77
2023/03/26 11:58:54;;;;;;;1.85;0.85;;;11.10;99.90;;;;;;4990618;28;20541;-79
2023/03/26 12:01:31;;;;;;;2.50;1.05;;;11.20;99.90;;;;;;4987270;28;20503;-79
2023/03/26 12:04:13;;;;;;;3.42;1.45;;;11.40;99.90;;;;;;4989403;28;20078;-79
2023/03/26 12:07:07;;;;;;;8.45;1.35;;;11.50;99.90;;;;;;4989695;28;20051;-78
2023/03/26 12:09:34;;;;;;;3.30;1.42;;;11.70;99.90;;;;;;4984441;28;20054;-79
2023/03/26 12:12:03;;;;;;;4.20;1.40;;;11.90;99.90;;;;;;4989498;28;20054;-78
2023/03/26 12:14:33;;;;;;;1.65;0.90;;;12.00;99.90;;;;;;4987900;28;20050;-79
2023/03/26 12:17:01;;;;;;;6.63;1.45;;;12.10;99.90;;;;;;4992030;28;20042;-79
2023/03/26 12:19:39;;;;;;;2.45;0.70;;;12.30;99.90;;;;;;4986154;28;20043;-79
2023/03/26 12:22:36;;;;;;;2.25;0.65;;;12.40;99.90;;;;;;4989500;28;20057;-79
2023/03/26 12:25:23;;;;;;;2.15;0.55;;;12.60;99.90;;;;;;4988475;28;20138;-79
2023/03/26 12:28:02;;;;;;;2.75;0.70;;;12.80;99.90;;;;;;4990216;28;20514;-78
2023/03/26 12:30:36;;;;;;;2.47;0.85;;;13.10;99.90;;;;;;4988982;28;20419;-79
2023/03/26 12:33:18;;;;;;;5.25;0.98;;;13.30;99.90;;;;;;4984509;28;20053;-78
2023/03/26 12:35:45;;;;;;;4.45;1.40;;;13.40;99.90;;;;;;4987457;28;20077;-79
2023/03/26 12:38:34;;;;;;;4.32;0.90;;;13.50;99.90;;;;;;4983596;28;20061;-78
2023/03/26 12:41:04;;;;;;;2.78;1.15;;;13.60;99.90;;;;;;4985529;28;20050;-79
2023/03/26 12:43:41;;;;;;;3.53;1.17;;;13.60;99.90;;;;;;4990982;28;20058;-79
2023/03/26 12:46:34;;;;;;;5.03;1.10;;;13.50;99.90;;;;;;4988380;28;20465;-78
2023/03/26 12:49:21;;;;;;;3.78;0.93;;;13.50;99.90;;;;;;4984263;28;20055;-78
2023/03/26 12:52:17;;;;;;;3.60;1.00;;;13.40;99.90;;;;;;4989106;28;20051;-78
2023/03/26 12:54:57;;;;;;;4.53;1.92;;;13.20;99.90;;;;;;4991510;28;20441;-78
2023/03/26 12:57:31;;;;;;;4.53;0.95;;;13.20;99.90;;;;;;4991831;28;20153;-78
2023/03/26 13:00:25;;;;;;;4.85;1.30;;;13.10;99.90;;;;;;5001186;28;20051;-78
2023/03/26 13:03:36;;;;;;;3.28;0.90;;;13.30;99.90;;;;;;5007202;28;20364;-78
2023/03/26 13:06:21;;;;;;;4.80;1.23;;;13.40;99.90;;;;;;5009557;28;20038;-78
2023/03/26 13:08:51;;;;;;;3.63;1.25;;;13.60;99.90;;;;;;5000031;28;20089;-78
2023/03/26 13:11:39;;;;;;;3.90;1.10;;;13.70;99.90;;;;;;4988730;28;20129;-78
2023/03/26 13:14:09;;;;;;;3.72;0.70;;;13.90;99.90;;;;;;4988381;28;20042;-79
2023/03/26 13:17:24;;;;;;;2.35;0.88;;;13.90;99.90;;;;;;4985902;28;20051;-79
2023/03/26 13:20:00;;;;;;;3.38;0.88;;;14.00;99.90;;;;;;4973657;28;20129;-79
2023/03/26 13:22:47;;;;;;;2.60;0.90;;;14.00;99.90;;;;;;4986520;28;20089;-79
2023/03/26 13:25:39;;;;;;;6.20;1.40;;;13.90;99.90;;;;;;4987275;28;20173;-78
2023/03/26 13:28:33;;;;;;;2.80;1.02;;;13.90;99.90;;;;;;4988919;28;20062;-79
2023/03/26 13:31:18;;;;;;;3.45;0.80;;;13.90;99.90;;;;;;4985468;28;20051;-79
2023/03/26 13:33:50;;;;;;;2.55;0.75;;;13.80;99.90;;;;;;4980486;28;20074;-79